createdAt,value
2023-02-23T04:39:50.343Z,100533.41
2023-02-23T04:42:54.226Z,100533.41
2023-02-23T04:45:56.933Z,100534.03
2023-02-23T04:49:00.196Z,100535.06
2023-02-23T04:52:02.976Z,100533.34
2023-02-23T04:55:08.442Z,100543.78
2023-02-23T04:58:15.628Z,100533.31
2023-02-23T05:01:18.930Z,100530.56
2023-02-23T05:04:21.659Z,100534.81
2023-02-23T05:07:24.846Z,100533.88
2023-02-23T05:10:27.595Z,100530.50
2023-02-23T05:13:30.814Z,100530.47
2023-02-23T05:16:33.641Z,100532.31
2023-02-23T05:19:37.289Z,100542.88
2023-02-23T05:22:40.055Z,100537.59
2023-02-23T05:25:43.049Z,100541.09
2023-02-23T05:28:45.665Z,100545.06
2023-02-23T05:31:49.117Z,100538.28
2023-02-23T05:34:51.760Z,100544.41
2023-02-23T05:37:54.796Z,100542.56
2023-02-23T05:40:57.964Z,100544.28
2023-02-23T05:44:01.161Z,100540.88
2023-02-23T05:47:04.001Z,100547.75
2023-02-23T05:50:11.438Z,100548.53
2023-02-23T05:53:14.622Z,100553.62
2023-02-23T05:56:20.552Z,100550.81
2023-02-23T05:59:23.396Z,100548.87
2023-02-23T06:02:26.501Z,100554.03
2023-02-23T06:05:30.034Z,100557.44
2023-02-23T06:08:33.089Z,100561.53
2023-02-23T06:11:36.066Z,100571.94
2023-02-23T06:14:38.891Z,100569.19
2023-02-23T06:17:41.693Z,100577.09
2023-02-23T06:20:45.825Z,100571.50
2023-02-23T06:23:48.930Z,100578.34
2023-02-23T06:26:51.689Z,100588.91
2023-02-23T06:29:54.683Z,100588.84
2023-02-23T06:32:57.286Z,100595.88
2023-02-23T06:36:00.259Z,100593.09
2023-02-23T06:39:04.068Z,100599.41
2023-02-23T06:42:07.105Z,100603.72
2023-02-23T06:45:10.631Z,100606.34
2023-02-23T06:48:13.662Z,100613.19
2023-02-23T06:51:16.351Z,100610.28
2023-02-23T06:54:21.697Z,100611.91
2023-02-23T06:57:24.626Z,100612.75
2023-02-23T07:00:27.856Z,100605.34
2023-02-23T07:03:30.483Z,100616.63
2023-02-23T07:06:33.596Z,100618.78
2023-02-23T07:09:36.386Z,100615.75
2023-02-23T07:12:40.110Z,100625.00
2023-02-23T07:15:43.117Z,100626.59
2023-02-23T07:18:48.042Z,100627.91
2023-02-23T07:21:51.069Z,100625.81
2023-02-23T07:24:54.051Z,100626.50
2023-02-23T07:27:59.052Z,100630.78
2023-02-23T07:31:02.055Z,100632.88
2023-02-23T07:34:04.845Z,100630.03
2023-02-23T07:37:07.832Z,100628.34
2023-02-23T07:40:11.317Z,100629.09
2023-02-23T07:43:14.796Z,100629.81
2023-02-23T07:46:17.539Z,100634.75
2023-02-23T07:49:20.493Z,100632.28
2023-02-23T07:52:23.161Z,100631.34
2023-02-23T07:55:26.185Z,100624.97
2023-02-23T07:58:28.933Z,100628.66
2023-02-23T08:01:32.229Z,100633.94
2023-02-23T08:04:35.419Z,100639.34
2023-02-23T08:07:38.317Z,100641.19
2023-02-23T08:10:42.208Z,100629.75
2023-02-23T08:13:45.001Z,100631.28
2023-02-23T08:16:49.521Z,100625.34
2023-02-23T08:19:53.229Z,100632.81
2023-02-23T08:22:57.511Z,100637.97
2023-02-23T08:26:01.469Z,100636.81
2023-02-23T08:29:05.038Z,100639.84
2023-02-23T08:32:07.581Z,100637.41
2023-02-23T08:35:11.169Z,100636.81
2023-02-23T08:38:13.649Z,100638.09
2023-02-23T08:41:17.619Z,100641.25
2023-02-23T08:44:20.576Z,100639.50
2023-02-23T08:47:24.285Z,100642.31
2023-02-23T08:50:27.562Z,100650.22
2023-02-23T08:53:31.930Z,100646.66
2023-02-23T08:56:34.647Z,100649.84
2023-02-23T08:59:39.205Z,100649.28
2023-02-23T09:02:42.950Z,100645.69
2023-02-23T09:05:46.322Z,100645.53
2023-02-23T09:08:49.854Z,100646.63
2023-02-23T09:11:53.585Z,100651.06
2023-02-23T09:14:56.248Z,100653.16
2023-02-23T09:18:02.664Z,100653.59
2023-02-23T09:21:08.551Z,100655.47
2023-02-23T09:24:11.643Z,100653.78
2023-02-23T09:27:14.906Z,100643.44
2023-02-23T09:30:23.769Z,100641.66
2023-02-23T09:33:27.718Z,100641.41
2023-02-23T09:36:31.715Z,100647.25
2023-02-23T09:39:38.383Z,100654.53
2023-02-23T09:43:05.587Z,100659.94
2023-02-23T09:46:31.977Z,100657.44
2023-02-23T09:49:39.315Z,100654.00
2023-02-23T09:52:47.494Z,100651.59
2023-02-23T09:55:53.100Z,100655.75
2023-02-23T09:58:56.093Z,100657.16
2023-02-23T10:02:37.132Z,100652.16
2023-02-23T10:05:48.283Z,100653.03
2023-02-23T10:09:29.412Z,100653.91
2023-02-23T10:12:44.971Z,100658.63
2023-02-23T10:15:51.334Z,100653.00
2023-02-23T10:19:22.995Z,100650.94
2023-02-23T10:22:27.658Z,100655.75
2023-02-23T10:25:34.632Z,100657.50
2023-02-23T10:28:37.707Z,100650.06
2023-02-23T10:31:45.184Z,100656.06
2023-02-23T10:34:53.352Z,100649.78
2023-02-23T10:37:57.014Z,100650.41
2023-02-23T10:40:59.778Z,100642.19
2023-02-23T10:44:16.375Z,100635.75
2023-02-23T10:47:22.919Z,100638.69
2023-02-23T10:50:29.716Z,100632.78
2023-02-23T10:53:37.521Z,100637.91
2023-02-23T10:56:46.292Z,100626.56
2023-02-23T11:00:10.880Z,100623.75
2023-02-23T11:03:33.308Z,100614.09
2023-02-23T11:06:43.630Z,100613.37
2023-02-23T11:09:48.349Z,100604.50
2023-02-23T11:12:52.405Z,100606.25
2023-02-23T11:15:59.612Z,100606.91
2023-02-23T11:19:05.867Z,100602.97
2023-02-23T11:22:23.305Z,100603.69
2023-02-23T11:25:30.535Z,100596.97
2023-02-23T11:28:37.478Z,100594.41
2023-02-23T11:31:41.693Z,100587.53
2023-02-23T11:34:45.774Z,100594.47
2023-02-23T11:37:48.964Z,100591.03
2023-02-23T11:41:04.754Z,100584.62
2023-02-23T11:44:07.474Z,100583.88
2023-02-23T11:47:19.000Z,100587.16
2023-02-23T11:50:36.289Z,100579.00
2023-02-23T11:53:46.769Z,100578.00
2023-02-23T11:56:52.265Z,100578.16
2023-02-23T11:59:58.069Z,100577.25
2023-02-23T12:03:03.086Z,100575.22
2023-02-23T12:06:06.618Z,100572.37
2023-02-23T12:09:24.790Z,100567.50
2023-02-23T12:12:31.062Z,100559.47
2023-02-23T12:15:57.168Z,100555.47
2023-02-23T12:19:19.029Z,100551.53
2023-02-23T12:22:35.524Z,100558.87
2023-02-23T12:25:44.547Z,100554.34
2023-02-23T12:28:58.908Z,100551.31
2023-02-23T12:32:10.383Z,100545.31
2023-02-23T12:35:26.965Z,100545.34
2023-02-23T12:38:53.073Z,100537.78
2023-02-23T12:42:13.616Z,100537.22
2023-02-23T12:45:54.950Z,100529.53
2023-02-23T12:49:18.975Z,100528.44
2023-02-23T12:52:32.261Z,100520.50
2023-02-23T12:55:47.326Z,100521.50
2023-02-23T12:59:41.627Z,100508.91
2023-02-23T13:02:52.149Z,100510.84
2023-02-23T13:05:55.035Z,100516.41
2023-02-23T13:09:20.404Z,100509.75
2023-02-23T13:12:29.577Z,100502.16
2023-02-23T13:16:06.917Z,100505.84
2023-02-23T13:19:45.722Z,100496.88
2023-02-23T13:23:09.488Z,100494.69
2023-02-23T13:26:27.840Z,100495.63
2023-02-23T13:29:40.811Z,100489.81
2023-02-23T13:32:43.819Z,100490.84
2023-02-23T13:35:46.815Z,100491.84
2023-02-23T13:39:19.120Z,100484.84
2023-02-23T13:42:51.219Z,100487.63
2023-02-23T13:46:26.467Z,100476.47
2023-02-23T13:49:47.126Z,100475.59
2023-02-23T13:52:58.366Z,100477.22
2023-02-23T13:56:07.182Z,100469.28
2023-02-23T13:59:17.931Z,100468.63
2023-02-23T14:02:33.137Z,100466.06
2023-02-23T14:05:44.361Z,100462.09
2023-02-23T14:08:56.957Z,100465.97
2023-02-23T14:12:08.026Z,100459.66
2023-02-23T14:15:26.264Z,100455.19
2023-02-23T14:18:32.151Z,100461.81
2023-02-23T14:21:57.430Z,100463.53
2023-02-23T14:25:39.374Z,100464.44
2023-02-23T14:28:49.278Z,100469.47
2023-02-23T14:31:59.306Z,100476.91
2023-02-23T14:35:02.781Z,100470.56
2023-02-23T14:38:22.475Z,100466.75
2023-02-23T14:41:29.472Z,100463.69
2023-02-23T14:44:42.314Z,100460.50
2023-02-23T14:47:48.658Z,100457.63
2023-02-23T14:50:51.764Z,100460.25
2023-02-23T14:53:58.853Z,100457.06
2023-02-23T14:57:17.794Z,100462.81
2023-02-23T15:00:27.505Z,100455.50
2023-02-23T15:03:30.636Z,100461.13
2023-02-23T15:06:33.294Z,100452.53
2023-02-23T15:09:44.531Z,100450.59
2023-02-23T15:12:47.499Z,100447.50
2023-02-23T15:15:50.500Z,100444.00
2023-02-23T15:18:53.632Z,100448.34
2023-02-23T15:21:59.352Z,100443.84
2023-02-23T15:25:09.880Z,100441.88
2023-02-23T15:28:25.372Z,100441.44
2023-02-23T15:31:31.085Z,100441.25
2023-02-23T15:34:35.051Z,100433.31
2023-02-23T15:37:45.385Z,100432.41
2023-02-23T15:40:52.911Z,100436.84
2023-02-23T15:44:14.962Z,100434.25
2023-02-23T15:47:23.252Z,100433.87
2023-02-23T15:50:37.236Z,100429.78
2023-02-23T15:53:41.386Z,100432.44
2023-02-23T15:56:49.804Z,100423.78
2023-02-23T15:59:57.577Z,100432.56
2023-02-23T16:03:02.682Z,100427.53
2023-02-23T16:06:23.164Z,100429.66
2023-02-23T16:09:29.038Z,100429.22
2023-02-23T16:12:36.292Z,100436.06
2023-02-23T16:15:40.255Z,100432.47
2023-02-23T16:18:43.494Z,100432.06
2023-02-23T16:21:53.871Z,100431.13
2023-02-23T16:25:05.157Z,100429.72
2023-02-23T16:28:13.112Z,100440.37
2023-02-23T16:31:25.827Z,100426.28
2023-02-23T16:34:37.666Z,100435.31
2023-02-23T16:38:01.004Z,100434.75
